sensor_id;sensor_type;location;lat;lon;timestamp;P1;P2;P0
44871;PMS7003;30602;51.060;17.226;2024-02-26T00:03:14;75;57;35
44871;PMS7003;30602;51.060;17.226;2024-02-26T00:06:49;77;60;36
44871;PMS7003;30602;51.060;17.226;2024-02-26T00:10:24;80;58;35
44871;PMS7003;30602;51.060;17.226;2024-02-26T00:13:49;75;58;34
44871;PMS7003;30602;51.060;17.226;2024-02-26T00:17:23;65;50;30
44871;PMS7003;30602;51.060;17.226;2024-02-26T00:20:56;76;57;36
44871;PMS7003;30602;51.060;17.226;2024-02-26T00:24:22;72;53;33
44871;PMS7003;30602;51.060;17.226;2024-02-26T00:27:51;74;58;34
44871;PMS7003;30602;51.060;17.226;2024-02-26T00:31:15;79;60;38
44871;PMS7003;30602;51.060;17.226;2024-02-26T00:35:21;86;62;37
44871;PMS7003;30602;51.060;17.226;2024-02-26T00:38:48;74;56;35
44871;PMS7003;30602;51.060;17.226;2024-02-26T00:42:24;76;60;37
44871;PMS7003;30602;51.060;17.226;2024-02-26T00:49:57;70;55;34
44871;PMS7003;30602;51.060;17.226;2024-02-26T00:53:23;68;52;33
44871;PMS7003;30602;51.060;17.226;2024-02-26T00:57:25;73;57;35
44871;PMS7003;30602;51.060;17.226;2024-02-26T01:00:50;74;56;35
44871;PMS7003;30602;51.060;17.226;2024-02-26T01:05:07;74;58;34
44871;PMS7003;30602;51.060;17.226;2024-02-26T01:08:39;66;52;30
44871;PMS7003;30602;51.060;17.226;2024-02-26T01:12:06;70;54;34
44871;PMS7003;30602;51.060;17.226;2024-02-26T01:15:35;67;53;32
44871;PMS7003;30602;51.060;17.226;2024-02-26T01:19:04;69;54;32
44871;PMS7003;30602;51.060;17.226;2024-02-26T01:22:31;62;49;29
44871;PMS7003;30602;51.060;17.226;2024-02-26T01:25:55;65;51;33
44871;PMS7003;30602;51.060;17.226;2024-02-26T01:29:20;64;51;32
44871;PMS7003;30602;51.060;17.226;2024-02-26T01:32:45;62;47;30
44871;PMS7003;30602;51.060;17.226;2024-02-26T01:36:11;61;48;31
44871;PMS7003;30602;51.060;17.226;2024-02-26T01:39:41;68;54;33
44871;PMS7003;30602;51.060;17.226;2024-02-26T01:43:06;66;50;31
44871;PMS7003;30602;51.060;17.226;2024-02-26T01:46:37;66;51;33
44871;PMS7003;30602;51.060;17.226;2024-02-26T01:50:03;70;53;33
44871;PMS7003;30602;51.060;17.226;2024-02-26T01:53:27;60;46;31
44871;PMS7003;30602;51.060;17.226;2024-02-26T01:56:54;68;51;31
44871;PMS7003;30602;51.060;17.226;2024-02-26T02:00:25;70;53;33
44871;PMS7003;30602;51.060;17.226;2024-02-26T02:03:54;62;50;32
44871;PMS7003;30602;51.060;17.226;2024-02-26T02:07:31;66;51;31
44871;PMS7003;30602;51.060;17.226;2024-02-26T02:11:34;65;47;29
44871;PMS7003;30602;51.060;17.226;2024-02-26T02:15:03;53;44;29
44871;PMS7003;30602;51.060;17.226;2024-02-26T02:18:33;47;39;27
44871;PMS7003;30602;51.060;17.226;2024-02-26T02:22:01;56;46;27
44871;PMS7003;30602;51.060;17.226;2024-02-26T02:25:27;51;40;26
44871;PMS7003;30602;51.060;17.226;2024-02-26T02:28:57;56;42;28
44871;PMS7003;30602;51.060;17.226;2024-02-26T02:32:25;57;45;28
44871;PMS7003;30602;51.060;17.226;2024-02-26T02:36:05;52;42;27
44871;PMS7003;30602;51.060;17.226;2024-02-26T02:39:34;50;43;26
44871;PMS7003;30602;51.060;17.226;2024-02-26T02:42:55;41;34;25
44871;PMS7003;30602;51.060;17.226;2024-02-26T02:46:36;45;40;25
44871;PMS7003;30602;51.060;17.226;2024-02-26T02:50:05;47;39;24
44871;PMS7003;30602;51.060;17.226;2024-02-26T02:53:30;43;37;24
44871;PMS7003;30602;51.060;17.226;2024-02-26T02:57:38;45;33;22
44871;PMS7003;30602;51.060;17.226;2024-02-26T03:00:59;42;35;22
44871;PMS7003;30602;51.060;17.226;2024-02-26T03:04:25;34;31;21
44871;PMS7003;30602;51.060;17.226;2024-02-26T03:07:54;40;32;21
44871;PMS7003;30602;51.060;17.226;2024-02-26T03:11:57;38;31;21
44871;PMS7003;30602;51.060;17.226;2024-02-26T03:15:21;36;31;20
44871;PMS7003;30602;51.060;17.226;2024-02-26T03:18:53;39;31;20
44871;PMS7003;30602;51.060;17.226;2024-02-26T03:22:21;28;25;19
44871;PMS7003;30602;51.060;17.226;2024-02-26T03:26:12;38;30;21
44871;PMS7003;30602;51.060;17.226;2024-02-26T03:29:40;37;30;20
44871;PMS7003;30602;51.060;17.226;2024-02-26T03:33:04;45;36;23
44871;PMS7003;30602;51.060;17.226;2024-02-26T03:36:36;26;21;11
44871;PMS7003;30602;51.060;17.226;2024-02-26T03:40:01;35;30;20
44871;PMS7003;30602;51.060;17.226;2024-02-26T03:44:01;44;36;22
44871;PMS7003;30602;51.060;17.226;2024-02-26T03:47:22;40;33;22
44871;PMS7003;30602;51.060;17.226;2024-02-26T03:50:47;34;32;22
44871;PMS7003;30602;51.060;17.226;2024-02-26T03:54:10;41;31;20
44871;PMS7003;30602;51.060;17.226;2024-02-26T03:57:40;48;37;23
44871;PMS7003;30602;51.060;17.226;2024-02-26T04:01:09;34;29;20
44871;PMS7003;30602;51.060;17.226;2024-02-26T04:04:34;29;26;19
44871;PMS7003;30602;51.060;17.226;2024-02-26T04:08:01;37;30;20
44871;PMS7003;30602;51.060;17.226;2024-02-26T04:11:33;27;23;13
44871;PMS7003;30602;51.060;17.226;2024-02-26T04:15:33;42;30;20
44871;PMS7003;30602;51.060;17.226;2024-02-26T04:18:55;32;29;20
44871;PMS7003;30602;51.060;17.226;2024-02-26T04:22:23;28;26;18
44871;PMS7003;30602;51.060;17.226;2024-02-26T04:25:48;30;29;18
44871;PMS7003;30602;51.060;17.226;2024-02-26T04:29:12;33;27;18
44871;PMS7003;30602;51.060;17.226;2024-02-26T04:32:38;39;33;20
44871;PMS7003;30602;51.060;17.226;2024-02-26T04:36:03;40;36;21
44871;PMS7003;30602;51.060;17.226;2024-02-26T04:39:32;47;38;24
44871;PMS7003;30602;51.060;17.226;2024-02-26T04:43:02;39;34;22
44871;PMS7003;30602;51.060;17.226;2024-02-26T04:46:27;35;29;19
44871;PMS7003;30602;51.060;17.226;2024-02-26T04:49:57;41;35;20
44871;PMS7003;30602;51.060;17.226;2024-02-26T04:53:25;40;35;22
44871;PMS7003;30602;51.060;17.226;2024-02-26T04:56:57;49;40;22
44871;PMS7003;30602;51.060;17.226;2024-02-26T05:00:28;39;35;22
44871;PMS7003;30602;51.060;17.226;2024-02-26T05:03:53;33;30;20
44871;PMS7003;30602;51.060;17.226;2024-02-26T05:07:17;33;27;21
44871;PMS7003;30602;51.060;17.226;2024-02-26T05:10:45;39;32;21
44871;PMS7003;30602;51.060;17.226;2024-02-26T05:14:12;31;29;20
44871;PMS7003;30602;51.060;17.226;2024-02-26T05:17:47;40;34;21
44871;PMS7003;30602;51.060;17.226;2024-02-26T05:21:13;39;32;20
44871;PMS7003;30602;51.060;17.226;2024-02-26T05:24:46;35;31;20
44871;PMS7003;30602;51.060;17.226;2024-02-26T05:28:09;38;33;21
44871;PMS7003;30602;51.060;17.226;2024-02-26T05:31:42;45;41;24
44871;PMS7003;30602;51.060;17.226;2024-02-26T05:35:07;47;39;23
44871;PMS7003;30602;51.060;17.226;2024-02-26T05:38:34;38;31;21
44871;PMS7003;30602;51.060;17.226;2024-02-26T05:42:05;33;24;16
44871;PMS7003;30602;51.060;17.226;2024-02-26T05:45:37;43;38;24
44871;PMS7003;30602;51.060;17.226;2024-02-26T05:49:04;45;36;24
44871;PMS7003;30602;51.060;17.226;2024-02-26T05:52:33;45;41;25
44871;PMS7003;30602;51.060;17.226;2024-02-26T05:56:08;37;36;23
44871;PMS7003;30602;51.060;17.226;2024-02-26T05:59:41;48;40;25
44871;PMS7003;30602;51.060;17.226;2024-02-26T06:03:08;59;46;29
44871;PMS7003;30602;51.060;17.226;2024-02-26T06:06:37;53;44;27
44871;PMS7003;30602;51.060;17.226;2024-02-26T06:10:04;47;42;27
44871;PMS7003;30602;51.060;17.226;2024-02-26T06:13:31;45;39;24
44871;PMS7003;30602;51.060;17.226;2024-02-26T06:16:53;37;32;22
44871;PMS7003;30602;51.060;17.226;2024-02-26T06:20:25;45;40;24
44871;PMS7003;30602;51.060;17.226;2024-02-26T06:23:52;46;40;24
44871;PMS7003;30602;51.060;17.226;2024-02-26T06:27:24;44;36;18
44871;PMS7003;30602;51.060;17.226;2024-02-26T06:30:52;40;36;22
44871;PMS7003;30602;51.060;17.226;2024-02-26T06:34:15;45;37;24
44871;PMS7003;30602;51.060;17.226;2024-02-26T06:37:47;55;43;26
44871;PMS7003;30602;51.060;17.226;2024-02-26T06:41:21;46;38;23
44871;PMS7003;30602;51.060;17.226;2024-02-26T06:44:51;51;38;23
44871;PMS7003;30602;51.060;17.226;2024-02-26T06:48:15;51;41;25
44871;PMS7003;30602;51.060;17.226;2024-02-26T06:51:41;49;40;24
44871;PMS7003;30602;51.060;17.226;2024-02-26T06:55:08;53;43;25
44871;PMS7003;30602;51.060;17.226;2024-02-26T06:58:37;53;40;22
44871;PMS7003;30602;51.060;17.226;2024-02-26T07:02:05;50;41;26
44871;PMS7003;30602;51.060;17.226;2024-02-26T07:05:35;56;43;25
44871;PMS7003;30602;51.060;17.226;2024-02-26T07:09:04;41;35;15
44871;PMS7003;30602;51.060;17.226;2024-02-26T07:13:16;53;45;27
44871;PMS7003;30602;51.060;17.226;2024-02-26T07:16:47;54;45;27
44871;PMS7003;30602;51.060;17.226;2024-02-26T07:20:18;48;43;30
44871;PMS7003;30602;51.060;17.226;2024-02-26T07:23:45;59;47;28
44871;PMS7003;30602;51.060;17.226;2024-02-26T07:27:19;62;47;29
44871;PMS7003;30602;51.060;17.226;2024-02-26T07:30:46;59;46;29
44871;PMS7003;30602;51.060;17.226;2024-02-26T07:34:16;67;51;32
44871;PMS7003;30602;51.060;17.226;2024-02-26T07:37:48;95;70;40
44871;PMS7003;30602;51.060;17.226;2024-02-26T07:41:20;73;58;33
44871;PMS7003;30602;51.060;17.226;2024-02-26T07:44:46;57;45;27
44871;PMS7003;30602;51.060;17.226;2024-02-26T07:48:13;46;40;26
44871;PMS7003;30602;51.060;17.226;2024-02-26T07:51:39;48;42;25
44871;PMS7003;30602;51.060;17.226;2024-02-26T07:55:08;62;50;28
44871;PMS7003;30602;51.060;17.226;2024-02-26T07:58:50;54;44;26
44871;PMS7003;30602;51.060;17.226;2024-02-26T08:02:08;43;37;22
44871;PMS7003;30602;51.060;17.226;2024-02-26T08:05:37;41;34;20
44871;PMS7003;30602;51.060;17.226;2024-02-26T08:09:09;52;43;26
44871;PMS7003;30602;51.060;17.226;2024-02-26T08:12:40;47;40;24
44871;PMS7003;30602;51.060;17.226;2024-02-26T08:16:10;42;37;23
44871;PMS7003;30602;51.060;17.226;2024-02-26T08:19:36;29;27;19
44871;PMS7003;30602;51.060;17.226;2024-02-26T08:23:06;32;24;15
44871;PMS7003;30602;51.060;17.226;2024-02-26T08:27:04;28;24;16
44871;PMS7003;30602;51.060;17.226;2024-02-26T08:30:32;26;22;16
44871;PMS7003;30602;51.060;17.226;2024-02-26T08:34:00;25;22;14
44871;PMS7003;30602;51.060;17.226;2024-02-26T08:38:01;27;22;14
44871;PMS7003;30602;51.060;17.226;2024-02-26T08:41:27;22;17;12
44871;PMS7003;30602;51.060;17.226;2024-02-26T08:44:52;21;17;12
44871;PMS7003;30602;51.060;17.226;2024-02-26T08:48:33;16;14;10
44871;PMS7003;30602;51.060;17.226;2024-02-26T08:52:01;17;14;10
44871;PMS7003;30602;51.060;17.226;2024-02-26T08:56:34;16;12;9
44871;PMS7003;30602;51.060;17.226;2024-02-26T09:00:00;15;11;8
44871;PMS7003;30602;51.060;17.226;2024-02-26T09:03:28;14;10;7
44871;PMS7003;30602;51.060;17.226;2024-02-26T09:06:56;12;9;8
44871;PMS7003;30602;51.060;17.226;2024-02-26T09:11:17;11;9;7
44871;PMS7003;30602;51.060;17.226;2024-02-26T09:15:03;7;6;5
44871;PMS7003;30602;51.060;17.226;2024-02-26T09:18:35;15;12;8
44871;PMS7003;30602;51.060;17.226;2024-02-26T09:22:14;9;9;7
44871;PMS7003;30602;51.060;17.226;2024-02-26T09:25:43;11;10;6
44871;PMS7003;30602;51.060;17.226;2024-02-26T09:29:10;8;8;6
44871;PMS7003;30602;51.060;17.226;2024-02-26T09:32:38;12;9;6
44871;PMS7003;30602;51.060;17.226;2024-02-26T09:36:01;7;7;4
44871;PMS7003;30602;51.060;17.226;2024-02-26T09:39:33;8;8;6
44871;PMS7003;30602;51.060;17.226;2024-02-26T09:43:34;11;9;6
44871;PMS7003;30602;51.060;17.226;2024-02-26T09:47:09;11;8;7
44871;PMS7003;30602;51.060;17.226;2024-02-26T09:50:43;6;6;5
44871;PMS7003;30602;51.060;17.226;2024-02-26T09:54:11;15;10;8
44871;PMS7003;30602;51.060;17.226;2024-02-26T09:57:50;9;8;6
44871;PMS7003;30602;51.060;17.226;2024-02-26T10:01:18;9;7;5
44871;PMS7003;30602;51.060;17.226;2024-02-26T10:04:40;6;6;5
44871;PMS7003;30602;51.060;17.226;2024-02-26T10:08:41;26;22;13
44871;PMS7003;30602;51.060;17.226;2024-02-26T10:12:08;9;7;5
44871;PMS7003;30602;51.060;17.226;2024-02-26T10:15:35;7;6;5
44871;PMS7003;30602;51.060;17.226;2024-02-26T10:18:58;9;6;6
44871;PMS7003;30602;51.060;17.226;2024-02-26T10:22:30;7;6;5
44871;PMS7003;30602;51.060;17.226;2024-02-26T10:26:12;11;8;7
44871;PMS7003;30602;51.060;17.226;2024-02-26T10:29:36;11;8;7
44871;PMS7003;30602;51.060;17.226;2024-02-26T10:33:06;9;8;6
44871;PMS7003;30602;51.060;17.226;2024-02-26T10:36:34;10;9;6
44871;PMS7003;30602;51.060;17.226;2024-02-26T10:39:58;10;10;7
44871;PMS7003;30602;51.060;17.226;2024-02-26T10:43:22;10;10;7
44871;PMS7003;30602;51.060;17.226;2024-02-26T10:46:44;11;9;7
44871;PMS7003;30602;51.060;17.226;2024-02-26T10:50:25;9;6;5
44871;PMS7003;30602;51.060;17.226;2024-02-26T10:53:59;11;9;6
44871;PMS7003;30602;51.060;17.226;2024-02-26T10:57:22;9;8;6
44871;PMS7003;30602;51.060;17.226;2024-02-26T11:00:57;7;6;4
44871;PMS7003;30602;51.060;17.226;2024-02-26T11:04:23;4;4;3
44871;PMS7003;30602;51.060;17.226;2024-02-26T11:07:49;8;6;4
44871;PMS7003;30602;51.060;17.226;2024-02-26T11:11:17;8;6;6
44871;PMS7003;30602;51.060;17.226;2024-02-26T11:14:49;9;5;3
44871;PMS7003;30602;51.060;17.226;2024-02-26T11:18:19;5;4;3
44871;PMS7003;30602;51.060;17.226;2024-02-26T11:21:49;4;4;3
44871;PMS7003;30602;51.060;17.226;2024-02-26T11:25:16;6;6;4
44871;PMS7003;30602;51.060;17.226;2024-02-26T11:28:39;4;3;2
44871;PMS7003;30602;51.060;17.226;2024-02-26T11:32:06;3;3;3
44871;PMS7003;30602;51.060;17.226;2024-02-26T11:35:46;5;4;4
44871;PMS7003;30602;51.060;17.226;2024-02-26T11:39:11;5;4;3
44871;PMS7003;30602;51.060;17.226;2024-02-26T11:49:57;5;3;2
44871;PMS7003;30602;51.060;17.226;2024-02-26T11:56:52;3;3;3
44871;PMS7003;30602;51.060;17.226;2024-02-26T12:00:19;3;2;2
44871;PMS7003;30602;51.060;17.226;2024-02-26T12:03:46;8;6;4
44871;PMS7003;30602;51.060;17.226;2024-02-26T12:07:30;5;4;3
44871;PMS7003;30602;51.060;17.226;2024-02-26T12:11:01;2;2;2
44871;PMS7003;30602;51.060;17.226;2024-02-26T12:14:26;7;3;3
44871;PMS7003;30602;51.060;17.226;2024-02-26T12:17:52;4;4;2
44871;PMS7003;30602;51.060;17.226;2024-02-26T12:21:17;3;3;2
44871;PMS7003;30602;51.060;17.226;2024-02-26T12:24:43;4;4;3
44871;PMS7003;30602;51.060;17.226;2024-02-26T12:28:09;2;2;2
44871;PMS7003;30602;51.060;17.226;2024-02-26T12:31:45;5;3;2
44871;PMS7003;30602;51.060;17.226;2024-02-26T12:35:11;3;3;3
44871;PMS7003;30602;51.060;17.226;2024-02-26T12:38:33;1;1;1
44871;PMS7003;30602;51.060;17.226;2024-02-26T12:42:01;1;1;1
44871;PMS7003;30602;51.060;17.226;2024-02-26T12:45:24;2;2;2
44871;PMS7003;30602;51.060;17.226;2024-02-26T12:48:50;3;2;2
44871;PMS7003;30602;51.060;17.226;2024-02-26T12:52:16;4;4;3
44871;PMS7003;30602;51.060;17.226;2024-02-26T12:55:41;4;3;2
44871;PMS7003;30602;51.060;17.226;2024-02-26T12:59:07;3;3;2
44871;PMS7003;30602;51.060;17.226;2024-02-26T13:02:32;5;4;2
44871;PMS7003;30602;51.060;17.226;2024-02-26T13:05:57;3;3;2
44871;PMS7003;30602;51.060;17.226;2024-02-26T13:09:22;2;2;2
44871;PMS7003;30602;51.060;17.226;2024-02-26T13:12:47;4;2;2
44871;PMS7003;30602;51.060;17.226;2024-02-26T13:16:14;4;3;2
44871;PMS7003;30602;51.060;17.226;2024-02-26T13:20:11;4;4;2
44871;PMS7003;30602;51.060;17.226;2024-02-26T13:23:42;3;2;2
44871;PMS7003;30602;51.060;17.226;2024-02-26T13:27:11;3;3;3
44871;PMS7003;30602;51.060;17.226;2024-02-26T13:30:42;4;3;2
44871;PMS7003;30602;51.060;17.226;2024-02-26T13:34:47;6;3;2
44871;PMS7003;30602;51.060;17.226;2024-02-26T13:38:10;5;4;2
44871;PMS7003;30602;51.060;17.226;2024-02-26T13:41:44;4;4;3
44871;PMS7003;30602;51.060;17.226;2024-02-26T13:45:07;4;4;2
44871;PMS7003;30602;51.060;17.226;2024-02-26T13:48:33;4;3;2
44871;PMS7003;30602;51.060;17.226;2024-02-26T13:51:55;3;3;2
44871;PMS7003;30602;51.060;17.226;2024-02-26T13:55:19;2;2;1
44871;PMS7003;30602;51.060;17.226;2024-02-26T13:58:46;3;2;2
44871;PMS7003;30602;51.060;17.226;2024-02-26T14:02:11;5;3;3
44871;PMS7003;30602;51.060;17.226;2024-02-26T14:05:38;5;2;2
44871;PMS7003;30602;51.060;17.226;2024-02-26T14:09:03;3;3;3
44871;PMS7003;30602;51.060;17.226;2024-02-26T14:12:27;5;4;3
44871;PMS7003;30602;51.060;17.226;2024-02-26T14:15:52;9;8;5
44871;PMS7003;30602;51.060;17.226;2024-02-26T14:19:14;18;13;9
44871;PMS7003;30602;51.060;17.226;2024-02-26T14:22:34;32;27;16
44871;PMS7003;30602;51.060;17.226;2024-02-26T14:26:00;10;9;7
44871;PMS7003;30602;51.060;17.226;2024-02-26T14:29:26;5;5;3
44871;PMS7003;30602;51.060;17.226;2024-02-26T14:32:51;19;18;12
44871;PMS7003;30602;51.060;17.226;2024-02-26T14:36:16;11;10;8
44871;PMS7003;30602;51.060;17.226;2024-02-26T14:39:34;12;10;9
44871;PMS7003;30602;51.060;17.226;2024-02-26T14:43:12;21;20;15
44871;PMS7003;30602;51.060;17.226;2024-02-26T14:46:37;17;16;12
44871;PMS7003;30602;51.060;17.226;2024-02-26T14:50:05;18;18;14
44871;PMS7003;30602;51.060;17.226;2024-02-26T14:53:28;18;13;9
44871;PMS7003;30602;51.060;17.226;2024-02-26T14:56:52;24;23;17
44871;PMS7003;30602;51.060;17.226;2024-02-26T15:00:20;22;18;15
44871;PMS7003;30602;51.060;17.226;2024-02-26T15:03:53;22;21;13
44871;PMS7003;30602;51.060;17.226;2024-02-26T15:07:21;15;13;9
44871;PMS7003;30602;51.060;17.226;2024-02-26T15:10:45;13;13;11
44871;PMS7003;30602;51.060;17.226;2024-02-26T15:14:15;15;12;11
44871;PMS7003;30602;51.060;17.226;2024-02-26T15:17:39;18;18;14
44871;PMS7003;30602;51.060;17.226;2024-02-26T15:21:04;8;6;5
44871;PMS7003;30602;51.060;17.226;2024-02-26T15:24:26;9;8;7
44871;PMS7003;30602;51.060;17.226;2024-02-26T15:27:51;8;8;7
44871;PMS7003;30602;51.060;17.226;2024-02-26T15:31:20;7;6;4
44871;PMS7003;30602;51.060;17.226;2024-02-26T15:34:41;8;8;7
44871;PMS7003;30602;51.060;17.226;2024-02-26T15:38:09;6;6;5
44871;PMS7003;30602;51.060;17.226;2024-02-26T15:41:35;11;11;8
44871;PMS7003;30602;51.060;17.226;2024-02-26T15:45:07;18;14;11
44871;PMS7003;30602;51.060;17.226;2024-02-26T15:48:32;12;11;8
44871;PMS7003;30602;51.060;17.226;2024-02-26T15:52:00;13;11;10
44871;PMS7003;30602;51.060;17.226;2024-02-26T15:55:23;11;9;7
44871;PMS7003;30602;51.060;17.226;2024-02-26T15:58:47;10;10;8
44871;PMS7003;30602;51.060;17.226;2024-02-26T16:02:15;11;11;8
44871;PMS7003;30602;51.060;17.226;2024-02-26T16:05:43;62;49;28
44871;PMS7003;30602;51.060;17.226;2024-02-26T16:09:20;115;89;43
44871;PMS7003;30602;51.060;17.226;2024-02-26T16:12:57;79;61;34
44871;PMS7003;30602;51.060;17.226;2024-02-26T16:16:26;67;52;31
44871;PMS7003;30602;51.060;17.226;2024-02-26T16:19:56;65;52;31
44871;PMS7003;30602;51.060;17.226;2024-02-26T16:23:22;15;15;11
44871;PMS7003;30602;51.060;17.226;2024-02-26T16:26:47;21;18;14
44871;PMS7003;30602;51.060;17.226;2024-02-26T16:30:09;14;14;10
44871;PMS7003;30602;51.060;17.226;2024-02-26T16:33:30;14;10;7
44871;PMS7003;30602;51.060;17.226;2024-02-26T16:36:51;8;8;6
44871;PMS7003;30602;51.060;17.226;2024-02-26T16:40:16;5;5;4
44871;PMS7003;30602;51.060;17.226;2024-02-26T16:43:38;8;4;4
44871;PMS7003;30602;51.060;17.226;2024-02-26T16:47:03;6;4;4
44871;PMS7003;30602;51.060;17.226;2024-02-26T16:50:29;6;5;4
44871;PMS7003;30602;51.060;17.226;2024-02-26T16:53:54;5;5;4
44871;PMS7003;30602;51.060;17.226;2024-02-26T16:57:19;19;15;10
44871;PMS7003;30602;51.060;17.226;2024-02-26T17:00:45;16;10;8
44871;PMS7003;30602;51.060;17.226;2024-02-26T17:04:10;10;10;8
44871;PMS7003;30602;51.060;17.226;2024-02-26T17:07:34;10;9;7
44871;PMS7003;30602;51.060;17.226;2024-02-26T17:11:00;9;8;5
44871;PMS7003;30602;51.060;17.226;2024-02-26T17:14:28;7;6;5
44871;PMS7003;30602;51.060;17.226;2024-02-26T17:17:50;10;8;5
44871;PMS7003;30602;51.060;17.226;2024-02-26T17:21:12;7;7;5
44871;PMS7003;30602;51.060;17.226;2024-02-26T17:24:40;10;7;5
44871;PMS7003;30602;51.060;17.226;2024-02-26T17:28:08;10;10;7
44871;PMS7003;30602;51.060;17.226;2024-02-26T17:31:33;10;8;7
44871;PMS7003;30602;51.060;17.226;2024-02-26T17:35:13;12;10;8
44871;PMS7003;30602;51.060;17.226;2024-02-26T17:38:41;13;12;9
44871;PMS7003;30602;51.060;17.226;2024-02-26T17:42:05;15;13;9
44871;PMS7003;30602;51.060;17.226;2024-02-26T17:45:31;17;15;10
44871;PMS7003;30602;51.060;17.226;2024-02-26T17:48:55;21;19;14
44871;PMS7003;30602;51.060;17.226;2024-02-26T17:52:22;32;30;23
44871;PMS7003;30602;51.060;17.226;2024-02-26T17:55:49;28;25;20
44871;PMS7003;30602;51.060;17.226;2024-02-26T17:59:33;38;36;25
44871;PMS7003;30602;51.060;17.226;2024-02-26T18:03:01;60;49;32
44871;PMS7003;30602;51.060;17.226;2024-02-26T18:06:33;46;41;25
44871;PMS7003;30602;51.060;17.226;2024-02-26T18:10:05;42;35;22
44871;PMS7003;30602;51.060;17.226;2024-02-26T18:13:32;34;32;20
44871;PMS7003;30602;51.060;17.226;2024-02-26T18:17:05;39;35;20
44871;PMS7003;30602;51.060;17.226;2024-02-26T18:20:27;34;30;19
44871;PMS7003;30602;51.060;17.226;2024-02-26T18:23:51;32;30;19
44871;PMS7003;30602;51.060;17.226;2024-02-26T18:27:14;35;30;19
44871;PMS7003;30602;51.060;17.226;2024-02-26T18:30:43;31;31;21
44871;PMS7003;30602;51.060;17.226;2024-02-26T18:34:15;41;37;23
44871;PMS7003;30602;51.060;17.226;2024-02-26T18:38:02;43;34;22
44871;PMS7003;30602;51.060;17.226;2024-02-26T18:41:34;37;32;19
44871;PMS7003;30602;51.060;17.226;2024-02-26T18:44:56;35;30;21
44871;PMS7003;30602;51.060;17.226;2024-02-26T18:48:27;33;25;16
44871;PMS7003;30602;51.060;17.226;2024-02-26T18:51:53;27;24;18
44871;PMS7003;30602;51.060;17.226;2024-02-26T18:55:20;31;26;18
44871;PMS7003;30602;51.060;17.226;2024-02-26T18:59:13;33;30;21
44871;PMS7003;30602;51.060;17.226;2024-02-26T19:03:15;43;34;23
44871;PMS7003;30602;51.060;17.226;2024-02-26T19:06:39;40;34;22
44871;PMS7003;30602;51.060;17.226;2024-02-26T19:10:36;43;37;25
44871;PMS7003;30602;51.060;17.226;2024-02-26T19:14:06;49;41;25
44871;PMS7003;30602;51.060;17.226;2024-02-26T19:18:09;46;40;26
44871;PMS7003;30602;51.060;17.226;2024-02-26T19:21:35;44;40;26
44871;PMS7003;30602;51.060;17.226;2024-02-26T19:25:01;49;42;25
44871;PMS7003;30602;51.060;17.226;2024-02-26T19:28:35;50;41;27
44871;PMS7003;30602;51.060;17.226;2024-02-26T19:32:38;54;43;27
44871;PMS7003;30602;51.060;17.226;2024-02-26T19:36:09;58;45;27
44871;PMS7003;30602;51.060;17.226;2024-02-26T19:41:48;59;44;28
44871;PMS7003;30602;51.060;17.226;2024-02-26T19:45:47;55;44;28
44871;PMS7003;30602;51.060;17.226;2024-02-26T19:49:18;52;43;26
44871;PMS7003;30602;51.060;17.226;2024-02-26T19:52:49;59;46;28
44871;PMS7003;30602;51.060;17.226;2024-02-26T19:56:22;57;47;28
44871;PMS7003;30602;51.060;17.226;2024-02-26T19:59:49;52;42;27
44871;PMS7003;30602;51.060;17.226;2024-02-26T20:03:18;61;47;29
44871;PMS7003;30602;51.060;17.226;2024-02-26T20:07:19;61;49;30
44871;PMS7003;30602;51.060;17.226;2024-02-26T20:10:49;61;47;31
44871;PMS7003;30602;51.060;17.226;2024-02-26T20:14:29;66;52;33
44871;PMS7003;30602;51.060;17.226;2024-02-26T20:17:58;75;57;35
44871;PMS7003;30602;51.060;17.226;2024-02-26T20:21:30;67;52;33
44871;PMS7003;30602;51.060;17.226;2024-02-26T20:24:59;71;56;35
44871;PMS7003;30602;51.060;17.226;2024-02-26T20:28:31;77;58;35
44871;PMS7003;30602;51.060;17.226;2024-02-26T20:32:05;67;55;36
44871;PMS7003;30602;51.060;17.226;2024-02-26T20:35:32;73;58;36
44871;PMS7003;30602;51.060;17.226;2024-02-26T20:39:18;76;60;37
44871;PMS7003;30602;51.060;17.226;2024-02-26T20:42:48;74;58;36
44871;PMS7003;30602;51.060;17.226;2024-02-26T20:46:51;71;55;35
44871;PMS7003;30602;51.060;17.226;2024-02-26T20:50:27;58;45;27
44871;PMS7003;30602;51.060;17.226;2024-02-26T20:54:02;65;53;33
44871;PMS7003;30602;51.060;17.226;2024-02-26T20:57:32;63;52;34
44871;PMS7003;30602;51.060;17.226;2024-02-26T21:01:05;66;53;33
44871;PMS7003;30602;51.060;17.226;2024-02-26T21:04:37;64;50;32
44871;PMS7003;30602;51.060;17.226;2024-02-26T21:08:09;67;54;33
44871;PMS7003;30602;51.060;17.226;2024-02-26T21:11:39;57;45;27
44871;PMS7003;30602;51.060;17.226;2024-02-26T21:15:08;58;46;28
44871;PMS7003;30602;51.060;17.226;2024-02-26T21:18:51;50;44;27
44871;PMS7003;30602;51.060;17.226;2024-02-26T21:22:35;50;42;25
44871;PMS7003;30602;51.060;17.226;2024-02-26T21:26:05;50;42;27
44871;PMS7003;30602;51.060;17.226;2024-02-26T21:29:41;54;40;26
44871;PMS7003;30602;51.060;17.226;2024-02-26T21:33:04;54;44;28
44871;PMS7003;30602;51.060;17.226;2024-02-26T21:44:52;59;47;28
44871;PMS7003;30602;51.060;17.226;2024-02-26T21:48:45;55;44;28
44871;PMS7003;30602;51.060;17.226;2024-02-26T21:56:29;62;50;31
44871;PMS7003;30602;51.060;17.226;2024-02-26T21:59:48;53;44;29
44871;PMS7003;30602;51.060;17.226;2024-02-26T22:03:29;58;47;30
44871;PMS7003;30602;51.060;17.226;2024-02-26T22:06:55;58;46;29
44871;PMS7003;30602;51.060;17.226;2024-02-26T22:10:26;61;47;29
44871;PMS7003;30602;51.060;17.226;2024-02-26T22:13:53;49;44;29
44871;PMS7003;30602;51.060;17.226;2024-02-26T22:18:04;58;46;29
44871;PMS7003;30602;51.060;17.226;2024-02-26T22:21:34;54;44;28
44871;PMS7003;30602;51.060;17.226;2024-02-26T22:25:00;55;45;28
44871;PMS7003;30602;51.060;17.226;2024-02-26T22:28:27;52;41;28
44871;PMS7003;30602;51.060;17.226;2024-02-26T22:32:00;61;46;28
44871;PMS7003;30602;51.060;17.226;2024-02-26T22:35:35;65;48;29
44871;PMS7003;30602;51.060;17.226;2024-02-26T22:39:01;56;45;29
44871;PMS7003;30602;51.060;17.226;2024-02-26T22:42:30;58;47;29
44871;PMS7003;30602;51.060;17.226;2024-02-26T22:46:05;62;48;29
44871;PMS7003;30602;51.060;17.226;2024-02-26T22:50:03;61;47;30
44871;PMS7003;30602;51.060;17.226;2024-02-26T22:53:39;63;47;29
44871;PMS7003;30602;51.060;17.226;2024-02-26T22:57:09;59;47;29
44871;PMS7003;30602;51.060;17.226;2024-02-26T23:00:35;50;43;29
44871;PMS7003;30602;51.060;17.226;2024-02-26T23:04:02;54;42;27